Sunday, February 17, 2019, 3:05 PM EST
Back to Local

KSMQ, Somerville Somerset Airport

Location: Bedminster, NJ, United States Lat: 40.617
Local Time: 3:05 PM EST (20:05 GMT) Lon: -74.667
Time Zone: US/Eastern Elev: 104 ft

Show me the last for .
Show Decoded

2019-02-17 14:53 METAR KSMQ 171953Z AUTO 14005KT 10SM CLR 03/M08 A3003 RMK AO2 SLP173 T00331083 =
2019-02-17 13:53 METAR KSMQ 171853Z AUTO VRB03KT 10SM CLR 02/M09 A3009 RMK AO2 SLP191 T00221089 =
2019-02-17 12:53 METAR KSMQ 171753Z AUTO VRB03KT 10SM CLR 02/M09 A3013 RMK AO2 SLP207 T00221094
                 10028 21061 56002 =
2019-02-17 11:53 METAR KSMQ 171653Z AUTO 18008KT 10SM CLR 02/M09 A3014 RMK AO2 PRESRR SLP209
                 T00221094 =
2019-02-17 10:53 METAR KSMQ 171553Z AUTO VRB03KT 10SM CLR 01/M10 A3013 RMK AO2 SLP206 T00111100 =
2019-02-17 09:53 METAR KSMQ 171453Z AUTO VRB04KT 10SM CLR 00/M11 A3014 RMK AO2 SLP209 T00001106
                 50011 =
2019-02-17 08:53 METAR KSMQ 171353Z AUTO 00000KT 10SM CLR M02/M09 A3016 RMK AO2 SLP214 T10171094
                 =
2019-02-17 07:53 METAR KSMQ 171253Z AUTO VRB03KT 10SM CLR M04/M09 A3014 RMK AO2 SLP208 T10391089
                 =
2019-02-17 06:53 METAR KSMQ 171153Z AUTO 10SM CLR M05/M10 A3011 RMK AO2 SLP198 T10501100 11022
                 21061 53015 =
2019-02-17 05:53 METAR KSMQ 171053Z AUTO 01003KT 10SM CLR M05/M10 A3006 RMK AO2 SLP181 T10501100
                 =
2019-02-17 04:53 METAR KSMQ 170953Z AUTO 32004KT 10SM CLR M04/M10 A3008 RMK AO2 SLP187 T10391100
                 =
2019-02-17 03:53 METAR KSMQ 170853Z AUTO 34005KT 10SM CLR M04/M10 A3006 RMK AO2 SLP183 T10391100
                 53003 =
2019-02-17 02:53 METAR KSMQ 170753Z AUTO 33004KT 10SM CLR M03/M09 A3006 RMK AO2 SLP181 T10331094
                 =
2019-02-17 01:53 METAR KSMQ 170653Z AUTO 35007KT 10SM CLR M03/M09 A3006 RMK AO2 SLP182 T10281094
                 =
2019-02-17 00:53 METAR KSMQ 170553Z AUTO 35003KT 10SM CLR M02/M09 A3006 RMK AO2 SLP181 T10221094
                 10022 21022 50016 =
2019-02-16 23:53 METAR KSMQ 170453Z AUTO 33005KT 10SM CLR M02/M09 A3006 RMK AO2 SLP181 T10171094
                 400781017 =
2019-02-16 22:53 METAR KSMQ 170353Z AUTO 34006KT 10SM CLR M01/M09 A3004 RMK AO2 SLP173 T10111094
                 =
2019-02-16 21:53 METAR KSMQ 170253Z AUTO 34005KT 10SM CLR M01/M09 A3001 RMK AO2 SLP165 T10061094
                 53023 =
2019-02-16 20:53 METAR KSMQ 170153Z AUTO 34004KT 10SM CLR 00/M09 A2998 RMK AO2 SLP156 T00001089 =
2019-02-16 19:53 METAR KSMQ 170053Z AUTO 35007G16KT 10SM CLR 01/M09 A2996 RMK AO2 SLP147
                 T00111089 =
2019-02-16 18:53 METAR KSMQ 162353Z AUTO 01006KT 10SM CLR 02/M08 A2994 RMK AO2 SLP142 T00221083
                 10067 20022 53028 =
2019-02-16 17:53 METAR KSMQ 162253Z AUTO 35006KT 10SM CLR 04/M08 A2991 RMK AO2 SLP129 T00391083 =
2019-02-16 16:53 METAR KSMQ 162153Z AUTO 31008KT 10SM CLR 05/M08 A2988 RMK AO2 SLP119 T00501078 =
2019-02-16 15:53 METAR KSMQ 162053Z AUTO 33009KT 290V360 10SM CLR 06/M08 A2986 RMK AO2 SLP112
                 T00611078 53001 =

Support USWX by starting your Amazon purchase here.